sensor_id;sensor_type;location;lat;lon;timestamp;temperature;humidity
16283;DHT22;8249;48.708;9.030;2022-08-19T00:00:21;20.30;99.90
16283;DHT22;8249;48.708;9.030;2022-08-19T00:02:49;20.30;99.90
16283;DHT22;8249;48.708;9.030;2022-08-19T00:05:17;20.30;99.90
16283;DHT22;8249;48.708;9.030;2022-08-19T00:07:45;20.30;99.90
16283;DHT22;8249;48.708;9.030;2022-08-19T00:10:14;20.20;99.90
16283;DHT22;8249;48.708;9.030;2022-08-19T00:12:42;20.20;99.90
16283;DHT22;8249;48.708;9.030;2022-08-19T00:15:12;20.20;99.90
16283;DHT22;8249;48.708;9.030;2022-08-19T00:17:42;20.20;99.90
16283;DHT22;8249;48.708;9.030;2022-08-19T00:20:18;20.30;99.90
16283;DHT22;8249;48.708;9.030;2022-08-19T00:22:46;20.20;99.90
16283;DHT22;8249;48.708;9.030;2022-08-19T00:25:14;20.20;99.90
16283;DHT22;8249;48.708;9.030;2022-08-19T00:27:41;20.20;99.90
16283;DHT22;8249;48.708;9.030;2022-08-19T00:30:09;20.20;99.90
16283;DHT22;8249;48.708;9.030;2022-08-19T00:32:38;20.20;99.90
16283;DHT22;8249;48.708;9.030;2022-08-19T00:35:08;20.10;99.90
16283;DHT22;8249;48.708;9.030;2022-08-19T00:37:35;20.10;99.90
16283;DHT22;8249;48.708;9.030;2022-08-19T00:40:04;20.10;99.90
16283;DHT22;8249;48.708;9.030;2022-08-19T00:42:33;20.10;99.90
16283;DHT22;8249;48.708;9.030;2022-08-19T00:45:00;20.10;99.90
16283;DHT22;8249;48.708;9.030;2022-08-19T00:47:27;20.10;99.90
16283;DHT22;8249;48.708;9.030;2022-08-19T00:49:57;20.10;99.90
16283;DHT22;8249;48.708;9.030;2022-08-19T00:52:29;20.10;99.90
16283;DHT22;8249;48.708;9.030;2022-08-19T00:54:59;20.10;99.90
16283;DHT22;8249;48.708;9.030;2022-08-19T00:57:29;20.10;99.90
16283;DHT22;8249;48.708;9.030;2022-08-19T00:59:58;20.00;99.90
16283;DHT22;8249;48.708;9.030;2022-08-19T01:02:27;20.00;99.90
16283;DHT22;8249;48.708;9.030;2022-08-19T01:04:54;20.00;99.90
16283;DHT22;8249;48.708;9.030;2022-08-19T01:07:22;20.00;99.90
16283;DHT22;8249;48.708;9.030;2022-08-19T01:09:51;20.00;99.90
16283;DHT22;8249;48.708;9.030;2022-08-19T01:12:18;20.00;99.90
16283;DHT22;8249;48.708;9.030;2022-08-19T01:14:46;20.00;99.90
16283;DHT22;8249;48.708;9.030;2022-08-19T01:17:15;20.10;99.90
16283;DHT22;8249;48.708;9.030;2022-08-19T01:19:43;20.00;99.90
16283;DHT22;8249;48.708;9.030;2022-08-19T01:22:14;20.00;99.90
16283;DHT22;8249;48.708;9.030;2022-08-19T01:24:44;20.00;99.90
16283;DHT22;8249;48.708;9.030;2022-08-19T01:27:11;20.00;99.90
16283;DHT22;8249;48.708;9.030;2022-08-19T01:29:40;20.00;99.90
16283;DHT22;8249;48.708;9.030;2022-08-19T01:32:10;20.00;99.90
16283;DHT22;8249;48.708;9.030;2022-08-19T01:34:38;20.00;99.90
16283;DHT22;8249;48.708;9.030;2022-08-19T01:37:07;20.00;99.90
16283;DHT22;8249;48.708;9.030;2022-08-19T01:39:38;20.00;99.90
16283;DHT22;8249;48.708;9.030;2022-08-19T01:42:07;20.00;99.90
16283;DHT22;8249;48.708;9.030;2022-08-19T01:44:37;20.00;99.90
16283;DHT22;8249;48.708;9.030;2022-08-19T01:47:04;20.00;99.90
16283;DHT22;8249;48.708;9.030;2022-08-19T01:49:31;19.90;99.90
16283;DHT22;8249;48.708;9.030;2022-08-19T01:51:59;19.90;99.90
16283;DHT22;8249;48.708;9.030;2022-08-19T01:54:27;19.90;99.90
16283;DHT22;8249;48.708;9.030;2022-08-19T01:56:58;19.90;99.90
16283;DHT22;8249;48.708;9.030;2022-08-19T01:59:28;19.80;99.90
16283;DHT22;8249;48.708;9.030;2022-08-19T02:01:55;19.80;99.90
16283;DHT22;8249;48.708;9.030;2022-08-19T02:04:22;19.80;99.90
16283;DHT22;8249;48.708;9.030;2022-08-19T02:06:51;19.80;99.90
16283;DHT22;8249;48.708;9.030;2022-08-19T02:09:18;19.70;99.90
16283;DHT22;8249;48.708;9.030;2022-08-19T02:11:45;19.70;99.90
16283;DHT22;8249;48.708;9.030;2022-08-19T02:14:12;19.60;99.90
16283;DHT22;8249;48.708;9.030;2022-08-19T02:16:40;19.70;99.90
16283;DHT22;8249;48.708;9.030;2022-08-19T02:19:07;19.70;99.90
16283;DHT22;8249;48.708;9.030;2022-08-19T02:21:36;19.70;99.90
16283;DHT22;8249;48.708;9.030;2022-08-19T02:24:04;19.70;99.90
16283;DHT22;8249;48.708;9.030;2022-08-19T02:26:32;19.70;99.90
16283;DHT22;8249;48.708;9.030;2022-08-19T02:28:59;19.60;99.90
16283;DHT22;8249;48.708;9.030;2022-08-19T02:31:26;19.60;99.90
16283;DHT22;8249;48.708;9.030;2022-08-19T02:33:56;19.60;99.90
16283;DHT22;8249;48.708;9.030;2022-08-19T02:36:24;19.70;99.90
16283;DHT22;8249;48.708;9.030;2022-08-19T02:38:51;19.60;99.90
16283;DHT22;8249;48.708;9.030;2022-08-19T02:41:19;19.60;99.90
16283;DHT22;8249;48.708;9.030;2022-08-19T02:43:47;19.50;99.90
16283;DHT22;8249;48.708;9.030;2022-08-19T02:46:16;19.50;99.90
16283;DHT22;8249;48.708;9.030;2022-08-19T02:48:47;19.50;99.90
16283;DHT22;8249;48.708;9.030;2022-08-19T02:51:21;19.50;99.90
16283;DHT22;8249;48.708;9.030;2022-08-19T02:53:49;19.50;99.90
16283;DHT22;8249;48.708;9.030;2022-08-19T02:56:16;19.50;99.90
16283;DHT22;8249;48.708;9.030;2022-08-19T02:58:43;19.60;99.90
16283;DHT22;8249;48.708;9.030;2022-08-19T03:01:11;19.60;99.90
16283;DHT22;8249;48.708;9.030;2022-08-19T03:03:46;19.60;99.90
16283;DHT22;8249;48.708;9.030;2022-08-19T03:06:15;19.50;99.90
16283;DHT22;8249;48.708;9.030;2022-08-19T03:08:45;19.50;99.90
16283;DHT22;8249;48.708;9.030;2022-08-19T03:11:13;19.50;99.90
16283;DHT22;8249;48.708;9.030;2022-08-19T03:13:41;19.40;99.90
16283;DHT22;8249;48.708;9.030;2022-08-19T03:16:09;19.40;99.90
16283;DHT22;8249;48.708;9.030;2022-08-19T03:18:36;19.40;99.90
16283;DHT22;8249;48.708;9.030;2022-08-19T03:21:03;19.40;99.90
16283;DHT22;8249;48.708;9.030;2022-08-19T03:23:31;19.30;99.90
16283;DHT22;8249;48.708;9.030;2022-08-19T03:26:03;19.30;99.90
16283;DHT22;8249;48.708;9.030;2022-08-19T03:28:32;19.30;99.90
16283;DHT22;8249;48.708;9.030;2022-08-19T03:31:01;19.30;99.90
16283;DHT22;8249;48.708;9.030;2022-08-19T03:33:29;19.30;99.90
16283;DHT22;8249;48.708;9.030;2022-08-19T03:36:05;19.40;99.90
16283;DHT22;8249;48.708;9.030;2022-08-19T03:38:34;19.30;99.90
16283;DHT22;8249;48.708;9.030;2022-08-19T03:41:07;19.30;99.90
16283;DHT22;8249;48.708;9.030;2022-08-19T03:43:35;19.30;99.90
16283;DHT22;8249;48.708;9.030;2022-08-19T03:46:04;19.20;99.90
16283;DHT22;8249;48.708;9.030;2022-08-19T03:48:33;19.30;99.90
16283;DHT22;8249;48.708;9.030;2022-08-19T03:51:01;19.20;99.90
16283;DHT22;8249;48.708;9.030;2022-08-19T03:53:29;19.20;99.90
16283;DHT22;8249;48.708;9.030;2022-08-19T03:55:58;19.20;99.90
16283;DHT22;8249;48.708;9.030;2022-08-19T03:58:29;19.20;99.90
16283;DHT22;8249;48.708;9.030;2022-08-19T04:00:56;19.20;99.90
16283;DHT22;8249;48.708;9.030;2022-08-19T04:03:23;19.20;99.90
16283;DHT22;8249;48.708;9.030;2022-08-19T04:05:52;19.20;99.90
16283;DHT22;8249;48.708;9.030;2022-08-19T04:08:19;19.20;99.90
16283;DHT22;8249;48.708;9.030;2022-08-19T04:10:48;19.10;99.90
16283;DHT22;8249;48.708;9.030;2022-08-19T04:13:17;19.10;99.90
16283;DHT22;8249;48.708;9.030;2022-08-19T04:15:46;19.10;99.90
16283;DHT22;8249;48.708;9.030;2022-08-19T04:18:13;19.10;99.90
16283;DHT22;8249;48.708;9.030;2022-08-19T04:20:42;19.00;99.90
16283;DHT22;8249;48.708;9.030;2022-08-19T04:23:10;19.00;99.90
16283;DHT22;8249;48.708;9.030;2022-08-19T04:25:38;19.00;99.90
16283;DHT22;8249;48.708;9.030;2022-08-19T04:28:06;19.00;99.90
16283;DHT22;8249;48.708;9.030;2022-08-19T04:30:40;19.00;99.90
16283;DHT22;8249;48.708;9.030;2022-08-19T04:33:09;19.00;99.90
16283;DHT22;8249;48.708;9.030;2022-08-19T04:35:37;19.10;99.90
16283;DHT22;8249;48.708;9.030;2022-08-19T04:38:05;19.10;99.90
16283;DHT22;8249;48.708;9.030;2022-08-19T04:40:32;19.10;99.90
16283;DHT22;8249;48.708;9.030;2022-08-19T04:43:17;19.00;99.90
16283;DHT22;8249;48.708;9.030;2022-08-19T04:45:45;19.00;99.90
16283;DHT22;8249;48.708;9.030;2022-08-19T04:48:13;19.00;99.90
16283;DHT22;8249;48.708;9.030;2022-08-19T04:50:42;19.00;99.90
16283;DHT22;8249;48.708;9.030;2022-08-19T04:53:09;19.00;99.90
16283;DHT22;8249;48.708;9.030;2022-08-19T04:55:41;19.00;99.90
16283;DHT22;8249;48.708;9.030;2022-08-19T04:58:08;19.00;99.90
16283;DHT22;8249;48.708;9.030;2022-08-19T05:00:38;19.00;99.90
16283;DHT22;8249;48.708;9.030;2022-08-19T05:03:06;19.00;99.90
16283;DHT22;8249;48.708;9.030;2022-08-19T05:05:38;19.00;99.90
16283;DHT22;8249;48.708;9.030;2022-08-19T05:08:05;19.10;99.90
16283;DHT22;8249;48.708;9.030;2022-08-19T05:10:34;19.10;99.90
16283;DHT22;8249;48.708;9.030;2022-08-19T05:13:02;19.20;99.90
16283;DHT22;8249;48.708;9.030;2022-08-19T05:15:29;19.20;99.90
16283;DHT22;8249;48.708;9.030;2022-08-19T05:17:57;19.10;99.90
16283;DHT22;8249;48.708;9.030;2022-08-19T05:20:43;19.10;99.90
16283;DHT22;8249;48.708;9.030;2022-08-19T05:23:27;19.10;99.90
16283;DHT22;8249;48.708;9.030;2022-08-19T05:25:54;19.10;99.90
16283;DHT22;8249;48.708;9.030;2022-08-19T05:28:21;19.10;99.90
16283;DHT22;8249;48.708;9.030;2022-08-19T05:30:48;19.10;99.90
16283;DHT22;8249;48.708;9.030;2022-08-19T05:33:16;19.10;99.90
16283;DHT22;8249;48.708;9.030;2022-08-19T05:35:45;19.10;99.90
16283;DHT22;8249;48.708;9.030;2022-08-19T05:38:13;19.10;99.90
16283;DHT22;8249;48.708;9.030;2022-08-19T05:40:41;19.10;99.90
16283;DHT22;8249;48.708;9.030;2022-08-19T05:43:11;19.10;99.90
16283;DHT22;8249;48.708;9.030;2022-08-19T05:45:41;19.10;99.90
16283;DHT22;8249;48.708;9.030;2022-08-19T05:48:09;19.10;99.90
16283;DHT22;8249;48.708;9.030;2022-08-19T05:50:37;19.10;99.90
16283;DHT22;8249;48.708;9.030;2022-08-19T05:53:06;19.10;99.90
16283;DHT22;8249;48.708;9.030;2022-08-19T05:55:34;19.10;99.90
16283;DHT22;8249;48.708;9.030;2022-08-19T05:58:02;19.10;99.90
16283;DHT22;8249;48.708;9.030;2022-08-19T06:00:29;19.10;99.90
16283;DHT22;8249;48.708;9.030;2022-08-19T06:02:57;19.10;99.90
16283;DHT22;8249;48.708;9.030;2022-08-19T06:05:28;19.20;99.90
16283;DHT22;8249;48.708;9.030;2022-08-19T06:07:55;19.20;99.90
16283;DHT22;8249;48.708;9.030;2022-08-19T06:10:25;19.20;99.90
16283;DHT22;8249;48.708;9.030;2022-08-19T06:12:52;19.20;99.90
16283;DHT22;8249;48.708;9.030;2022-08-19T06:15:19;19.20;99.90
16283;DHT22;8249;48.708;9.030;2022-08-19T06:17:51;19.20;99.90
16283;DHT22;8249;48.708;9.030;2022-08-19T06:20:19;19.20;99.90
16283;DHT22;8249;48.708;9.030;2022-08-19T06:22:48;19.20;99.90
16283;DHT22;8249;48.708;9.030;2022-08-19T06:25:17;19.20;99.90
16283;DHT22;8249;48.708;9.030;2022-08-19T06:27:46;19.30;99.90
16283;DHT22;8249;48.708;9.030;2022-08-19T06:30:13;19.30;99.90
16283;DHT22;8249;48.708;9.030;2022-08-19T06:32:41;19.40;99.90
16283;DHT22;8249;48.708;9.030;2022-08-19T06:35:08;19.40;99.90
16283;DHT22;8249;48.708;9.030;2022-08-19T06:37:36;19.40;99.90
16283;DHT22;8249;48.708;9.030;2022-08-19T06:40:04;19.40;99.90
16283;DHT22;8249;48.708;9.030;2022-08-19T06:42:33;19.40;99.90
16283;DHT22;8249;48.708;9.030;2022-08-19T06:45:05;19.40;99.90
16283;DHT22;8249;48.708;9.030;2022-08-19T06:47:34;19.50;99.90
16283;DHT22;8249;48.708;9.030;2022-08-19T06:50:02;19.50;99.90
16283;DHT22;8249;48.708;9.030;2022-08-19T06:52:30;19.50;99.90
16283;DHT22;8249;48.708;9.030;2022-08-19T06:54:58;19.60;99.90
16283;DHT22;8249;48.708;9.030;2022-08-19T06:57:26;19.60;99.90
16283;DHT22;8249;48.708;9.030;2022-08-19T06:59:53;19.70;99.90
16283;DHT22;8249;48.708;9.030;2022-08-19T07:02:23;19.80;99.90
16283;DHT22;8249;48.708;9.030;2022-08-19T07:04:52;19.80;99.90
16283;DHT22;8249;48.708;9.030;2022-08-19T07:07:20;19.90;99.90
16283;DHT22;8249;48.708;9.030;2022-08-19T07:09:49;19.90;99.90
16283;DHT22;8249;48.708;9.030;2022-08-19T07:12:16;19.90;99.90
16283;DHT22;8249;48.708;9.030;2022-08-19T07:14:43;20.00;99.90
16283;DHT22;8249;48.708;9.030;2022-08-19T07:17:12;20.00;99.90
16283;DHT22;8249;48.708;9.030;2022-08-19T07:19:41;20.00;99.90
16283;DHT22;8249;48.708;9.030;2022-08-19T07:22:09;20.00;99.90
16283;DHT22;8249;48.708;9.030;2022-08-19T07:24:37;20.10;99.90
16283;DHT22;8249;48.708;9.030;2022-08-19T07:27:05;20.10;99.90
16283;DHT22;8249;48.708;9.030;2022-08-19T07:29:34;20.20;99.90
16283;DHT22;8249;48.708;9.030;2022-08-19T07:32:03;20.30;99.90
16283;DHT22;8249;48.708;9.030;2022-08-19T07:34:31;20.40;99.90
16283;DHT22;8249;48.708;9.030;2022-08-19T07:37:01;20.40;99.90
16283;DHT22;8249;48.708;9.030;2022-08-19T07:39:31;20.40;99.90
16283;DHT22;8249;48.708;9.030;2022-08-19T07:42:00;20.40;99.90
16283;DHT22;8249;48.708;9.030;2022-08-19T07:44:28;20.40;99.90
16283;DHT22;8249;48.708;9.030;2022-08-19T07:46:56;20.30;99.90
16283;DHT22;8249;48.708;9.030;2022-08-19T07:49:25;20.20;99.90
16283;DHT22;8249;48.708;9.030;2022-08-19T07:51:54;20.20;99.90
16283;DHT22;8249;48.708;9.030;2022-08-19T07:54:25;20.20;99.90
16283;DHT22;8249;48.708;9.030;2022-08-19T07:56:52;20.20;99.90
16283;DHT22;8249;48.708;9.030;2022-08-19T07:59:19;20.10;99.90
16283;DHT22;8249;48.708;9.030;2022-08-19T08:01:48;20.10;99.90
16283;DHT22;8249;48.708;9.030;2022-08-19T08:04:16;20.10;99.90
16283;DHT22;8249;48.708;9.030;2022-08-19T08:07:00;20.00;99.90
16283;DHT22;8249;48.708;9.030;2022-08-19T08:09:46;20.00;99.90
16283;DHT22;8249;48.708;9.030;2022-08-19T08:12:16;19.90;99.90
16283;DHT22;8249;48.708;9.030;2022-08-19T08:14:46;19.90;99.90
16283;DHT22;8249;48.708;9.030;2022-08-19T08:17:14;19.80;99.90
16283;DHT22;8249;48.708;9.030;2022-08-19T08:19:42;19.80;99.90
16283;DHT22;8249;48.708;9.030;2022-08-19T08:22:10;19.80;99.90
16283;DHT22;8249;48.708;9.030;2022-08-19T08:25:04;19.70;99.90
16283;DHT22;8249;48.708;9.030;2022-08-19T08:27:35;19.70;99.90
16283;DHT22;8249;48.708;9.030;2022-08-19T08:30:05;19.70;99.90
16283;DHT22;8249;48.708;9.030;2022-08-19T08:32:35;19.70;99.90
16283;DHT22;8249;48.708;9.030;2022-08-19T08:35:03;19.70;99.90
16283;DHT22;8249;48.708;9.030;2022-08-19T08:37:30;19.70;99.90
16283;DHT22;8249;48.708;9.030;2022-08-19T08:39:57;19.70;99.90
16283;DHT22;8249;48.708;9.030;2022-08-19T08:42:29;19.70;99.90
16283;DHT22;8249;48.708;9.030;2022-08-19T08:45:00;19.70;99.90
16283;DHT22;8249;48.708;9.030;2022-08-19T08:47:31;19.70;99.90
16283;DHT22;8249;48.708;9.030;2022-08-19T08:50:04;19.70;99.90
16283;DHT22;8249;48.708;9.030;2022-08-19T08:52:36;19.70;99.90
16283;DHT22;8249;48.708;9.030;2022-08-19T08:55:08;19.70;99.90
16283;DHT22;8249;48.708;9.030;2022-08-19T08:57:44;19.70;99.90
16283;DHT22;8249;48.708;9.030;2022-08-19T09:00:18;19.80;99.90
16283;DHT22;8249;48.708;9.030;2022-08-19T09:02:47;19.90;99.90
16283;DHT22;8249;48.708;9.030;2022-08-19T09:05:14;20.00;99.90
16283;DHT22;8249;48.708;9.030;2022-08-19T09:07:45;20.10;99.90
16283;DHT22;8249;48.708;9.030;2022-08-19T09:10:32;20.20;99.90
16283;DHT22;8249;48.708;9.030;2022-08-19T09:13:08;20.30;99.90
16283;DHT22;8249;48.708;9.030;2022-08-19T09:15:43;20.30;99.90
16283;DHT22;8249;48.708;9.030;2022-08-19T09:18:11;20.50;99.90
16283;DHT22;8249;48.708;9.030;2022-08-19T09:20:38;20.50;99.90
16283;DHT22;8249;48.708;9.030;2022-08-19T09:23:05;20.50;99.90
16283;DHT22;8249;48.708;9.030;2022-08-19T09:25:33;20.50;99.90
16283;DHT22;8249;48.708;9.030;2022-08-19T09:28:02;20.50;99.90
16283;DHT22;8249;48.708;9.030;2022-08-19T09:30:32;20.50;99.90
16283;DHT22;8249;48.708;9.030;2022-08-19T09:32:59;20.60;99.90
16283;DHT22;8249;48.708;9.030;2022-08-19T09:35:28;20.60;99.90
16283;DHT22;8249;48.708;9.030;2022-08-19T09:37:56;20.60;99.90
16283;DHT22;8249;48.708;9.030;2022-08-19T09:40:24;20.60;99.90
16283;DHT22;8249;48.708;9.030;2022-08-19T09:42:51;20.70;99.90
16283;DHT22;8249;48.708;9.030;2022-08-19T09:45:21;20.70;99.90
16283;DHT22;8249;48.708;9.030;2022-08-19T09:47:49;20.70;99.90
16283;DHT22;8249;48.708;9.030;2022-08-19T09:50:16;20.70;99.90
16283;DHT22;8249;48.708;9.030;2022-08-19T09:52:44;20.70;99.90
16283;DHT22;8249;48.708;9.030;2022-08-19T09:55:12;20.80;99.90
16283;DHT22;8249;48.708;9.030;2022-08-19T09:57:39;20.70;99.90
16283;DHT22;8249;48.708;9.030;2022-08-19T10:00:08;20.80;99.90
16283;DHT22;8249;48.708;9.030;2022-08-19T10:02:37;20.80;99.90
16283;DHT22;8249;48.708;9.030;2022-08-19T10:05:04;20.80;99.90
16283;DHT22;8249;48.708;9.030;2022-08-19T10:07:49;20.80;99.90
16283;DHT22;8249;48.708;9.030;2022-08-19T10:10:17;20.90;99.90
16283;DHT22;8249;48.708;9.030;2022-08-19T10:12:44;20.90;99.90
16283;DHT22;8249;48.708;9.030;2022-08-19T10:15:13;21.00;99.90
16283;DHT22;8249;48.708;9.030;2022-08-19T10:17:42;21.00;99.90
16283;DHT22;8249;48.708;9.030;2022-08-19T10:20:09;21.10;99.90
16283;DHT22;8249;48.708;9.030;2022-08-19T10:22:37;21.10;99.90
16283;DHT22;8249;48.708;9.030;2022-08-19T10:25:05;21.10;99.90
16283;DHT22;8249;48.708;9.030;2022-08-19T10:27:32;21.10;99.90
16283;DHT22;8249;48.708;9.030;2022-08-19T10:29:59;21.10;99.90
16283;DHT22;8249;48.708;9.030;2022-08-19T10:32:26;21.20;99.90
16283;DHT22;8249;48.708;9.030;2022-08-19T10:34:56;21.20;99.90
16283;DHT22;8249;48.708;9.030;2022-08-19T10:37:23;21.20;99.90
16283;DHT22;8249;48.708;9.030;2022-08-19T10:39:50;21.20;99.90
16283;DHT22;8249;48.708;9.030;2022-08-19T10:42:18;21.20;99.90
16283;DHT22;8249;48.708;9.030;2022-08-19T10:44:46;21.20;99.90
16283;DHT22;8249;48.708;9.030;2022-08-19T10:47:13;21.20;99.90
16283;DHT22;8249;48.708;9.030;2022-08-19T10:49:41;21.30;99.90
16283;DHT22;8249;48.708;9.030;2022-08-19T10:52:23;21.30;99.90
16283;DHT22;8249;48.708;9.030;2022-08-19T10:55:04;21.40;99.90
16283;DHT22;8249;48.708;9.030;2022-08-19T10:57:49;21.50;99.90
16283;DHT22;8249;48.708;9.030;2022-08-19T11:00:18;21.50;99.90
16283;DHT22;8249;48.708;9.030;2022-08-19T11:02:46;21.60;99.90
16283;DHT22;8249;48.708;9.030;2022-08-19T11:05:13;21.60;99.90
16283;DHT22;8249;48.708;9.030;2022-08-19T11:07:42;21.70;99.90
16283;DHT22;8249;48.708;9.030;2022-08-19T11:10:12;21.80;99.90
16283;DHT22;8249;48.708;9.030;2022-08-19T11:12:40;21.90;99.90
16283;DHT22;8249;48.708;9.030;2022-08-19T11:15:08;22.00;99.90
16283;DHT22;8249;48.708;9.030;2022-08-19T11:17:37;22.10;99.90
16283;DHT22;8249;48.708;9.030;2022-08-19T11:20:07;22.10;99.90
16283;DHT22;8249;48.708;9.030;2022-08-19T11:22:34;22.10;99.90
16283;DHT22;8249;48.708;9.030;2022-08-19T11:25:04;22.10;99.90
16283;DHT22;8249;48.708;9.030;2022-08-19T11:27:31;22.10;99.90
16283;DHT22;8249;48.708;9.030;2022-08-19T11:29:58;22.10;99.90
16283;DHT22;8249;48.708;9.030;2022-08-19T11:32:25;22.10;99.90
16283;DHT22;8249;48.708;9.030;2022-08-19T11:34:53;22.10;99.90
16283;DHT22;8249;48.708;9.030;2022-08-19T11:37:20;22.10;99.90
16283;DHT22;8249;48.708;9.030;2022-08-19T11:39:46;22.10;99.90
16283;DHT22;8249;48.708;9.030;2022-08-19T11:42:17;22.10;99.90
16283;DHT22;8249;48.708;9.030;2022-08-19T11:45:02;22.10;99.90
16283;DHT22;8249;48.708;9.030;2022-08-19T11:47:30;22.20;99.90
16283;DHT22;8249;48.708;9.030;2022-08-19T11:49:58;22.20;99.90
16283;DHT22;8249;48.708;9.030;2022-08-19T11:52:25;22.20;99.90
16283;DHT22;8249;48.708;9.030;2022-08-19T11:54:52;22.30;99.90
16283;DHT22;8249;48.708;9.030;2022-08-19T11:57:20;22.30;99.90
16283;DHT22;8249;48.708;9.030;2022-08-19T11:59:48;22.30;99.90
16283;DHT22;8249;48.708;9.030;2022-08-19T12:02:16;22.40;99.90
16283;DHT22;8249;48.708;9.030;2022-08-19T12:04:42;22.40;99.90
16283;DHT22;8249;48.708;9.030;2022-08-19T12:07:09;22.40;99.90
16283;DHT22;8249;48.708;9.030;2022-08-19T12:09:36;22.40;99.90
16283;DHT22;8249;48.708;9.030;2022-08-19T12:12:05;22.50;99.90
16283;DHT22;8249;48.708;9.030;2022-08-19T12:14:34;22.60;99.90
16283;DHT22;8249;48.708;9.030;2022-08-19T12:17:01;22.70;99.90
16283;DHT22;8249;48.708;9.030;2022-08-19T12:19:30;22.80;99.90
16283;DHT22;8249;48.708;9.030;2022-08-19T12:21:59;22.90;99.90
16283;DHT22;8249;48.708;9.030;2022-08-19T12:24:30;23.00;99.90
16283;DHT22;8249;48.708;9.030;2022-08-19T12:26:57;23.20;99.90
16283;DHT22;8249;48.708;9.030;2022-08-19T12:29:27;23.40;99.90
16283;DHT22;8249;48.708;9.030;2022-08-19T12:31:57;23.40;99.90
16283;DHT22;8249;48.708;9.030;2022-08-19T12:34:28;23.50;99.90
16283;DHT22;8249;48.708;9.030;2022-08-19T12:36:57;23.50;99.90
16283;DHT22;8249;48.708;9.030;2022-08-19T12:39:24;23.60;99.90
16283;DHT22;8249;48.708;9.030;2022-08-19T12:41:51;23.60;99.90
16283;DHT22;8249;48.708;9.030;2022-08-19T12:44:18;23.60;99.90
16283;DHT22;8249;48.708;9.030;2022-08-19T12:46:47;23.70;99.90
16283;DHT22;8249;48.708;9.030;2022-08-19T12:49:16;23.70;99.90
16283;DHT22;8249;48.708;9.030;2022-08-19T12:51:43;23.80;99.90
16283;DHT22;8249;48.708;9.030;2022-08-19T12:54:10;23.80;99.90
16283;DHT22;8249;48.708;9.030;2022-08-19T12:56:37;23.70;99.90
16283;DHT22;8249;48.708;9.030;2022-08-19T12:59:04;23.70;99.90
16283;DHT22;8249;48.708;9.030;2022-08-19T13:01:33;23.70;99.90
16283;DHT22;8249;48.708;9.030;2022-08-19T13:04:00;23.70;99.90
16283;DHT22;8249;48.708;9.030;2022-08-19T13:06:28;23.60;99.90
16283;DHT22;8249;48.708;9.030;2022-08-19T13:08:55;23.60;99.90
16283;DHT22;8249;48.708;9.030;2022-08-19T13:11:23;23.50;99.90
16283;DHT22;8249;48.708;9.030;2022-08-19T13:13:51;23.40;99.90
16283;DHT22;8249;48.708;9.030;2022-08-19T13:16:20;23.40;99.90
16283;DHT22;8249;48.708;9.030;2022-08-19T13:18:48;23.40;99.90
16283;DHT22;8249;48.708;9.030;2022-08-19T13:21:18;23.50;99.90
16283;DHT22;8249;48.708;9.030;2022-08-19T13:23:48;23.60;99.90
16283;DHT22;8249;48.708;9.030;2022-08-19T13:26:15;23.70;99.90
16283;DHT22;8249;48.708;9.030;2022-08-19T13:28:44;23.80;99.90
16283;DHT22;8249;48.708;9.030;2022-08-19T13:31:34;23.90;99.90
16283;DHT22;8249;48.708;9.030;2022-08-19T13:34:27;23.90;99.90
16283;DHT22;8249;48.708;9.030;2022-08-19T13:36:54;23.80;99.90
16283;DHT22;8249;48.708;9.030;2022-08-19T13:39:22;23.90;99.90
16283;DHT22;8249;48.708;9.030;2022-08-19T13:41:49;23.90;99.90
16283;DHT22;8249;48.708;9.030;2022-08-19T13:44:16;23.90;99.90
16283;DHT22;8249;48.708;9.030;2022-08-19T13:46:45;23.80;99.90
16283;DHT22;8249;48.708;9.030;2022-08-19T13:49:13;23.80;99.90
16283;DHT22;8249;48.708;9.030;2022-08-19T13:51:41;23.70;99.90
16283;DHT22;8249;48.708;9.030;2022-08-19T13:54:10;23.80;99.90
16283;DHT22;8249;48.708;9.030;2022-08-19T13:56:41;23.90;99.90
16283;DHT22;8249;48.708;9.030;2022-08-19T13:59:09;24.00;99.90
16283;DHT22;8249;48.708;9.030;2022-08-19T14:01:36;24.10;99.90
16283;DHT22;8249;48.708;9.030;2022-08-19T14:04:06;24.10;99.90
16283;DHT22;8249;48.708;9.030;2022-08-19T14:06:33;24.10;99.90
16283;DHT22;8249;48.708;9.030;2022-08-19T14:09:00;24.00;99.90
16283;DHT22;8249;48.708;9.030;2022-08-19T14:11:28;24.00;99.90
16283;DHT22;8249;48.708;9.030;2022-08-19T14:13:57;24.00;99.90
16283;DHT22;8249;48.708;9.030;2022-08-19T14:16:24;24.20;99.90
16283;DHT22;8249;48.708;9.030;2022-08-19T14:18:52;24.60;99.90
16283;DHT22;8249;48.708;9.030;2022-08-19T14:21:23;25.00;99.90
16283;DHT22;8249;48.708;9.030;2022-08-19T14:23:51;25.20;99.90
16283;DHT22;8249;48.708;9.030;2022-08-19T14:26:20;25.20;99.90
16283;DHT22;8249;48.708;9.030;2022-08-19T14:28:47;25.10;99.90
16283;DHT22;8249;48.708;9.030;2022-08-19T14:31:17;24.80;99.90
16283;DHT22;8249;48.708;9.030;2022-08-19T14:33:45;24.50;99.90
16283;DHT22;8249;48.708;9.030;2022-08-19T14:36:12;24.20;99.90
16283;DHT22;8249;48.708;9.030;2022-08-19T14:38:39;23.70;99.90
16283;DHT22;8249;48.708;9.030;2022-08-19T14:41:08;23.50;99.90
16283;DHT22;8249;48.708;9.030;2022-08-19T14:43:36;23.30;99.90
16283;DHT22;8249;48.708;9.030;2022-08-19T14:46:04;23.20;99.90
16283;DHT22;8249;48.708;9.030;2022-08-19T14:48:32;23.00;99.90
16283;DHT22;8249;48.708;9.030;2022-08-19T14:50:59;22.90;99.90
16283;DHT22;8249;48.708;9.030;2022-08-19T14:53:26;22.80;99.90
16283;DHT22;8249;48.708;9.030;2022-08-19T14:55:53;22.80;99.90
16283;DHT22;8249;48.708;9.030;2022-08-19T14:58:20;22.90;99.90
16283;DHT22;8249;48.708;9.030;2022-08-19T15:00:48;23.00;99.90
16283;DHT22;8249;48.708;9.030;2022-08-19T15:03:15;23.10;99.90
16283;DHT22;8249;48.708;9.030;2022-08-19T15:05:43;23.00;99.90
16283;DHT22;8249;48.708;9.030;2022-08-19T15:08:10;23.10;99.90
16283;DHT22;8249;48.708;9.030;2022-08-19T15:10:38;23.10;99.90
16283;DHT22;8249;48.708;9.030;2022-08-19T15:13:05;23.30;99.90
16283;DHT22;8249;48.708;9.030;2022-08-19T15:15:33;23.60;99.90
16283;DHT22;8249;48.708;9.030;2022-08-19T15:18:01;23.80;99.90
16283;DHT22;8249;48.708;9.030;2022-08-19T15:20:29;24.00;99.90
16283;DHT22;8249;48.708;9.030;2022-08-19T15:22:58;24.30;99.90
16283;DHT22;8249;48.708;9.030;2022-08-19T15:25:26;24.60;99.90
16283;DHT22;8249;48.708;9.030;2022-08-19T15:27:53;25.20;99.90
16283;DHT22;8249;48.708;9.030;2022-08-19T15:30:22;26.30;99.90
16283;DHT22;8249;48.708;9.030;2022-08-19T15:32:50;27.10;99.90
16283;DHT22;8249;48.708;9.030;2022-08-19T15:35:18;27.60;99.90
16283;DHT22;8249;48.708;9.030;2022-08-19T15:37:48;27.60;99.90
16283;DHT22;8249;48.708;9.030;2022-08-19T15:40:17;27.40;99.90
16283;DHT22;8249;48.708;9.030;2022-08-19T15:42:45;27.60;99.90
16283;DHT22;8249;48.708;9.030;2022-08-19T15:45:16;27.70;99.90
16283;DHT22;8249;48.708;9.030;2022-08-19T15:47:43;27.80;99.90
16283;DHT22;8249;48.708;9.030;2022-08-19T15:50:13;27.70;99.90
16283;DHT22;8249;48.708;9.030;2022-08-19T15:52:45;27.20;99.90
16283;DHT22;8249;48.708;9.030;2022-08-19T15:55:18;27.10;99.90